Latest Coastal Weather Observations for Port Hedland

IDW60701

Issued at 9:53 pm WST Monday 4 May 2026 (issued every 10 minutes, with the page automatically refreshed every 10 minutes)

About coastal observations | Map of coastal stations | Coastal observations for WA | Marine services | Other Formats
Station Details ID: 004032 Name: PORT HEDLAND AIRPORT Lat: -20.37 Lon: 118.63 Height: 6.4 m
Data from the previous 72 hours. | See also: Recent months at Port Hedland
Date/Time
WST
Wind Sea
Height
m
Swell Vis
km
Cloud Weather Temp
°C
Press
MSL
hPa
Rain since
9am
mm
Dir  Spd
kts
Gust
kts
Height
m
Period
s
Dir
04/09:30pm SE 8 10 - - - - 10 - - 24.7 1016.3 0.0
04/09:00pm ESE 7 9 - - - - 10 - - 25.5 1016.4 0.0
04/08:30pm ESE 7 9 - - - - 10 - - 26.1 1016.3 0.0
04/08:00pm ESE 7 9 - - - - 10 - - 26.5 1016.1 0.0
04/07:30pm ESE 7 9 - - - - 10 - - 27.3 1015.6 0.0
04/07:00pm ESE 8 10 - - - - 10 - - 27.9 1015.1 0.0
04/06:30pm ESE 5 6 - - - - 10 - - 27.2 1014.7 0.0
04/06:00pm SE 4 5 - - - - 10 - - 28.9 1014.6 0.0
04/05:30pm SE 8 13 - - - - 10 - - 31.0 1014.0 0.0
04/05:00pm SE 11 14 - - - - 10 - - 32.0 1013.9 0.0
04/04:30pm ESE 10 15 - - - - 10 - - 32.5 1013.7 0.0
04/04:00pm SE 12 17 - - - - 10 - - 32.8 1013.6 0.0
04/03:30pm ESE 10 15 - - - - 10 - - 33.0 1013.5 0.0
04/03:00pm ESE 12 18 - - - - 10 - - 32.9 1013.8 0.0
04/02:30pm SE 12 17 - - - - 10 - - 33.1 1014.1 0.0
04/02:00pm SE 11 16 - - - - 10 - - 32.7 1014.2 0.0
04/01:30pm ESE 11 17 - - - - 10 - - 32.6 1014.6 0.0
04/01:00pm SE 12 17 - - - - 10 - - 32.1 1015.3 0.0
04/12:30pm ESE 12 16 - - - - 10 - - 31.5 1015.8 0.0
04/12:00pm ESE 13 18 - - - - 10 - - 31.0 1016.3 0.0
04/11:30am ESE 15 23 - - - - 10 - - 30.2 1016.8 0.0
04/11:00am SE 16 23 - - - - 10 - - 29.7 1017.4 0.0
04/10:30am ESE 15 21 - - - - 10 - - 29.0 1017.8 0.0
04/10:00am ESE 15 22 - - - - 10 - - 29.1 1017.9 0.0
04/09:30am SE 15 23 - - - - 10 - - 27.7 1017.9 0.0
04/09:00am ESE 16 23 - - - - 10 - - 27.1 1018.0 0.0
04/08:30am ESE 16 23 - - - - 10 - - 26.0 1017.7 0.0
04/08:00am SE 13 19 - - - - 10 - - 25.1 1017.7 0.0
04/07:30am SE 8 10 - - - - 10 - - 23.2 1017.5 0.0
04/07:00am SE 6 8 - - - - 10 Partly cloudy - 21.0 1017.4 0.0
04/06:30am SE 8 10 - - - - 10 - - 21.4 1016.9 0.0
04/06:00am SE 9 11 - - - - 10 - - 22.2 1016.5 0.0
04/05:30am SE 9 12 - - - - 10 - - 22.6 1016.1 0.0
04/05:00am ESE 11 16 - - - - 10 Mostly clear - 23.2 1015.9 0.0
04/04:30am ESE 11 15 - - - - 10 Partly cloudy - 23.5 1015.8 0.0
04/04:00am ESE 10 14 - - - - 10 Partly cloudy - 23.4 1015.7 0.0
04/03:30am ESE 10 14 - - - - 10 Mostly clear - 23.1 1015.6 0.0
04/03:00am ESE 11 14 - - - - 10 - - 23.5 1015.4 0.0
04/02:30am ESE 11 14 - - - - 10 - - 23.9 1015.5 0.0
04/02:00am ESE 10 15 - - - - 10 - - 23.9 1015.5 0.0
04/01:30am ESE 13 17 - - - - 10 - - 23.9 1015.4 0.0
04/01:00am ESE 10 13 - - - - 10 - - 24.3 1015.5 0.0
04/12:30am ESE 12 16 - - - - 10 - - 24.7 1015.5 0.0
04/12:00am ESE 11 13 - - - - 10 - - 24.3 1015.4 0.0
 
Date/Time
WST
Wind Sea
Height
m
Swell Vis
km
Cloud Weather Temp
°C
Press
MSL
hPa
Rain since
9am
mm
Dir  Spd
kts
Gust
kts
Height
m
Period
s
Dir
03/11:30pm ESE 11 13 - - - - 10 - - 24.4 1015.5 0.0
03/11:00pm ESE 9 12 - - - - 10 - - 24.1 1015.5 0.0
03/10:30pm ESE 7 9 - - - - 10 - - 24.3 1015.6 0.0
03/10:00pm E 7 10 - - - - 10 - - 25.7 1015.5 0.0
03/09:30pm CALM 0 0 - - - - 10 Partly cloudy - 25.0 1015.4 0.0
03/09:00pm CALM 0 0 - - - - 10 - - 25.5 1015.3 0.0
03/08:30pm CALM 0 0 - - - - 10 - - 25.5 1014.9 0.0
03/08:00pm CALM 0 0 - - - - 10 - - 25.8 1014.5 0.0
03/07:30pm CALM 0 2 - - - - 10 Mostly clear - 26.3 1014.3 0.0
03/07:00pm E 4 6 - - - - 10 Partly cloudy - 26.9 1013.7 0.0
03/06:30pm ESE 5 6 - - - - 10 - - 28.1 1013.2 0.0
03/06:00pm E 5 6 - - - - 10 - - 29.0 1012.8 0.0
03/05:30pm ESE 6 7 - - - - 10 - - 31.0 1012.5 0.0
03/05:00pm ESE 6 9 - - - - 10 - - 32.4 1012.3 0.0
03/04:30pm SE 7 11 - - - - 10 - - 32.8 1012.2 0.0
03/04:00pm SE 8 11 - - - - 10 - - 33.4 1012.0 0.0
03/03:30pm ESE 6 10 - - - - 10 - - 33.3 1012.0 0.0
03/03:00pm ESE 8 12 - - - - 10 - - 33.6 1012.2 0.0
03/02:30pm SE 9 12 - - - - 10 - - 32.8 1012.4 0.0
03/02:00pm ESE 9 13 - - - - 10 - - 32.6 1012.7 0.0
03/01:30pm ESE 10 14 - - - - 10 - - 32.3 1013.0 0.0
03/01:00pm ESE 11 16 - - - - 10 - - 32.0 1013.6 0.0
03/12:30pm ESE 10 15 - - - - 10 - - 31.8 1014.0 0.0
03/12:00pm ESE 11 15 - - - - 10 - - 30.9 1014.5 0.0
03/11:30am ESE 12 17 - - - - 10 - - 30.1 1015.1 0.0
03/11:00am E 15 20 - - - - 10 - - 29.5 1015.7 0.0
03/10:30am ESE 14 19 - - - - 10 - - 28.6 1016.1 0.0
03/10:00am ESE 15 20 - - - - 10 - - 27.9 1016.6 0.0
03/09:30am ESE 14 21 - - - - 10 - - 26.9 1016.9 0.0
03/09:00am ESE 15 20 - - - - 10 - - 25.8 1016.9 0.0
03/08:30am ESE 16 21 - - - - 10 - - 24.9 1016.8 0.0
03/08:28am ESE 15 21 - - - - 10 - - 25.0 1016.8 0.0
03/08:00am E 9 11 - - - - 10 - - 23.3 1016.4 0.0
03/07:30am E 6 8 - - - - 10 Partly cloudy - 21.9 1016.1 0.0
03/07:00am ESE 7 9 - - - - 10 - - 20.1 1015.6 0.0
03/06:30am E 5 7 - - - - 10 - - 19.3 1015.2 0.0
03/06:00am ESE 4 6 - - - - 10 - - 19.5 1014.8 0.0
03/05:30am SE 5 6 - - - - 10 - - 20.4 1014.6 0.0
03/05:00am SE 4 5 - - - - 10 - - 20.2 1014.2 0.0
03/04:30am SE 1 4 - - - - 10 - - 19.9 1014.0 0.0
03/04:00am SE 1 4 - - - - 10 - - 20.2 1013.8 0.0
03/03:30am E 5 6 - - - - 10 - - 20.7 1013.8 0.0
03/03:00am ESE 7 9 - - - - 10 - - 22.1 1013.6 0.0
03/02:30am SSE 4 5 - - - - 10 - - 21.9 1013.4 0.0
03/02:00am ESE 3 5 - - - - 10 - - 22.4 1013.5 0.0
03/01:30am ESE 5 6 - - - - 10 - - 22.8 1013.4 0.0
03/01:00am ESE 4 5 - - - - 10 - - 22.9 1013.6 0.0
03/12:30am E 4 5 - - - - 10 - - 22.7 1013.6 0.0
03/12:00am E 6 7 - - - - 10 - - 22.6 1013.6 0.0
 
Date/Time
WST
Wind Sea
Height
m
Swell Vis
km
Cloud Weather Temp
°C
Press
MSL
hPa
Rain since
9am
mm
Dir  Spd
kts
Gust
kts
Height
m
Period
s
Dir
02/11:30pm E 7 8 - - - - 10 - - 23.4 1013.6 0.0
02/11:00pm ENE 7 8 - - - - 10 - - 24.1 1013.7 0.0
02/10:30pm E 6 7 - - - - 10 - - 25.0 1013.7 0.0
02/10:00pm ESE 5 8 - - - - 10 - - 25.0 1013.6 0.0
02/09:30pm E 5 6 - - - - 10 - - 25.0 1013.4 0.0
02/09:00pm E 6 8 - - - - 10 Mostly cloudy - 25.5 1013.4 0.0
02/08:30pm E 4 6 - - - - 10 - - 26.5 1013.0 0.0
02/08:00pm NNE 5 6 - - - - 10 - - 27.6 1012.4 0.0
02/07:30pm NNE 4 5 - - - - 10 - - 27.2 1012.1 0.0
02/07:00pm N 5 5 - - - - 10 - - 27.0 1011.6 0.0
02/06:30pm N 6 6 - - - - 10 - - 27.7 1011.2 0.0
02/06:00pm N 6 8 - - - - 10 - - 28.0 1010.9 0.0
02/05:30pm N 7 9 - - - - 10 - - 29.7 1010.6 0.0
02/05:00pm N 7 9 - - - - 10 - - 31.0 1010.1 0.0
02/04:30pm NNE 9 11 - - - - 10 - - 32.1 1010.0 0.0
02/04:00pm NNE 11 13 - - - - 10 - - 32.2 1010.0 0.0
02/03:30pm NE 8 12 - - - - 10 - - 33.1 1010.0 0.0
02/03:00pm ESE 7 13 - - - - 10 - - 34.3 1010.0 0.0
02/02:30pm ESE 8 13 - - - - 10 - - 34.3 1010.2 0.0
02/02:00pm NNE 8 13 - - - - 10 - - 33.2 1010.4 0.0
02/01:30pm NNE 9 13 - - - - 10 - - 33.3 1010.8 0.0
02/01:00pm ENE 7 24 - - - - 10 - - 33.2 1011.1 0.0
02/12:30pm ENE 9 15 - - - - 10 - - 33.6 1011.5 0.0
02/12:00pm ESE 9 15 - - - - 10 - - 33.6 1012.0 0.0
02/11:30am E 12 19 - - - - 10 - - 33.2 1012.3 0.0
02/11:00am E 11 16 - - - - 10 - - 32.7 1012.8 0.0
02/10:30am ESE 14 21 - - - - 10 - - 32.3 1013.2 0.0
02/10:00am ESE 11 16 - - - - 10 - - 31.6 1013.4 0.0
02/09:30am ESE 8 12 - - - - 10 - - 30.9 1013.4 0.0
02/09:00am ESE 6 8 - - - - 10 - - 29.8 1013.2 0.0
02/08:30am ESE 6 7 - - - - 10 - - 28.7 1013.1 0.0
02/08:00am SE 6 8 - - - - 10 - - 26.9 1013.0 0.0
02/07:30am ESE 5 7 - - - - 10 - - 25.8 1012.4 0.0
02/07:00am SE 6 8 - - - - 10 - - 23.9 1012.0 0.0
02/06:30am SE 6 8 - - - - 10 - - 23.1 1011.7 0.0
02/06:00am SE 5 7 - - - - 10 - - 22.9 1011.5 0.0
02/05:30am SE 5 6 - - - - 10 - - 23.1 1011.4 0.0
02/05:00am SSE 5 7 - - - - 10 - - 22.8 1011.3 0.0
02/04:30am SSE 5 7 - - - - 10 - - 22.8 1011.2 0.0
02/04:00am SE 5 7 - - - - 10 - - 23.0 1010.9 0.0
02/03:30am SE 1 4 - - - - 10 - - 23.1 1010.7 0.0
02/03:00am SSE 1 3 - - - - 10 - - 23.0 1010.5 0.0
02/02:30am SSE 3 4 - - - - 10 - - 23.1 1010.6 0.0
02/02:00am CALM 0 0 - - - - 10 - - 23.5 1010.9 0.0
02/01:30am CALM 0 0 - - - - 10 - - 23.3 1011.0 0.0
02/01:00am CALM 0 0 - - - - 10 - - 23.6 1011.1 0.0
02/12:30am CALM 0 0 - - - - 10 - - 23.7 1011.2 0.0
02/12:00am CALM 0 0 - - - - 10 - - 24.2 1011.5 0.0
 
Date/Time
WST
Wind Sea
Height
m
Swell Vis
km
Cloud Weather Temp
°C
Press
MSL
hPa
Rain since
9am
mm
Dir  Spd
kts
Gust
kts
Height
m
Period
s
Dir
01/11:30pm WNW 4 5 - - - - 10 - - 24.1 1011.7 0.0
01/11:00pm WNW 6 7 - - - - 10 - - 24.3 1011.6 0.0
01/10:30pm WNW 6 7 - - - - 10 - - 24.6 1011.8 0.0
01/10:00pm NW 7 7 - - - - 10 - - 24.9 1011.9 0.0

Other formats

Comma delimited format used in spreadsheet applications
http://www.bom.gov.au/fwo/IDW60701/IDW60701.94312.axf

JavaScript Object Notation format (JSON) in row-major order
http://www.bom.gov.au/fwo/IDW60701/IDW60701.94312.json

Data quality

Most of these data are generated automatically and are frequently updated. Quality checks on data are not normally performed. It is possible for incorrect values to appear. Refer to information at About Latest Weather Observations and please check the disclaimer before using these data.